Huvudsida
METAR-TAF:

METAR-TAF

Flygplatser :

Volgograd, Ryssland

latitud: 48-47N, longitud: 044-22E, höjd: 145 m

Aktuellt väderrapport

Denna rapport gjordes för 44 minuter sedan, klockan 03:00 UTC
Vind 6 kt från väst
Temperatur 8°C
Fuktighet 61%
Tryck 1021 hPa
Sikt 10 km eller mer
Inga moln under 1 500 m eller inga cumulonimbus

METAR: URWW 230300Z 26003MPS CAVOK 08/01 Q1021 R24/010070 NOSIG

Tid: 07:44 (03:44 UTC)

Väderprognos

Denna rapport gjordes för 1 timme och 46 minuter sedan, klockan 01:58 UTC
Prognos gäller från 23 kl. 03 UTC till 23 kl. 12 UTC
Vind 6 kt från väst/sydväst i byarna ända upp till 19 kt
Sikt 10 km eller mer
Spridda moln på en höjd av 4000 ft
Temporärt
från 23 kl. 03 UTC till 23 kl. 12 UTC
Vind 12 kt från väst i byarna ända upp till 21 kt

TAF: URWW 230158Z 2303/2312 25003G10MPS 9999 SCT040 TEMPO 2303/2312 28006G11MPS

Aktuella väderrapporter och prognoser från 4000 flygplatser (METAR- och TAF-rapporter).

De tillgängliga stationerna syns som gula och röda prickar på kartan.

För musen över prickarna för att se namnen på stationerna.

Klicka sedan för att få väderrapporter och prognoser.

För att ändra kartan: Klicka på de gröna knapparna med ett svart kors på för att zooma in; den gröna knappen med ett streck på för att zooma ut; eller på de gröna pilarna för angränsande kartor.


METAR-TAF: